Time;durP1;ratioP1;P1;durP2;ratioP2;P2;SDS_P1;SDS_P2;PMS_P1;PMS_P2;Temp;Humidity;BMP_temperature;BMP_pressure;BME280_temperature;BME280_humidity;BME280_pressure;Samples;Min_cycle;Max_cycle;Signal;HPM_P1;HPM_P2
2020/12/22 00:00:33;;;;;;;1.65;0.95;;;21.30;49.20;;;;;;1504229;92;21704;-36
2020/12/22 00:03:01;;;;;;;0.80;0.80;;;21.30;49.20;;;;;;1501829;92;21419;-35
2020/12/22 00:05:28;;;;;;;0.75;0.75;;;21.30;49.20;;;;;;1504273;92;21667;-35
2020/12/22 00:07:56;;;;;;;3.00;0.85;;;21.30;49.10;;;;;;1500759;93;21220;-34
2020/12/22 00:10:24;;;;;;;1.20;0.93;;;21.20;49.20;;;;;;1503916;93;21602;-36
2020/12/22 00:12:52;;;;;;;1.20;0.80;;;21.30;49.20;;;;;;1473155;92;21297;-34
2020/12/22 00:15:20;;;;;;;1.20;0.85;;;21.20;49.10;;;;;;1478868;93;21340;-35
2020/12/22 00:17:47;;;;;;;2.77;1.02;;;21.20;49.00;;;;;;1495891;93;21197;-35
2020/12/22 00:20:16;;;;;;;1.00;0.90;;;21.20;49.10;;;;;;1497419;93;21205;-34
2020/12/22 00:22:47;;;;;;;1.10;1.00;;;21.20;49.10;;;;;;1497084;92;21755;-35
2020/12/22 00:25:13;;;;;;;0.90;0.85;;;21.20;49.10;;;;;;1502382;92;21774;-36
2020/12/22 00:27:41;;;;;;;1.50;1.00;;;21.20;49.10;;;;;;1480068;93;21200;-36
2020/12/22 00:30:09;;;;;;;0.95;0.78;;;21.20;49.10;;;;;;1500206;92;21334;-36
2020/12/22 00:32:37;;;;;;;1.57;1.02;;;21.20;49.10;;;;;;1477525;93;21317;-33
2020/12/22 00:35:05;;;;;;;0.85;0.80;;;21.20;49.10;;;;;;1479422;94;21311;-36
2020/12/22 00:37:33;;;;;;;0.80;0.75;;;21.20;49.10;;;;;;1499711;92;21244;-34
2020/12/22 00:40:01;;;;;;;0.85;0.85;;;21.20;49.10;;;;;;1470314;95;21256;-36
2020/12/22 00:42:34;;;;;;;1.75;0.93;;;21.20;49.00;;;;;;1497137;93;21150;-36
2020/12/22 00:45:02;;;;;;;1.00;0.78;;;21.20;49.00;;;;;;1492020;92;21174;-35
2020/12/22 00:47:29;;;;;;;1.52;0.95;;;21.20;49.30;;;;;;1494446;93;21252;-35
2020/12/22 00:49:57;;;;;;;1.17;0.72;;;21.20;49.00;;;;;;1509487;92;21295;-35
2020/12/22 00:52:25;;;;;;;0.85;0.70;;;21.20;49.00;;;;;;1489041;93;21894;-36
2020/12/22 00:54:52;;;;;;;0.98;0.70;;;21.20;49.00;;;;;;1512153;92;21305;-35
2020/12/22 00:57:20;;;;;;;1.45;0.90;;;21.20;49.00;;;;;;1515936;92;21186;-37
2020/12/22 00:59:48;;;;;;;1.10;0.90;;;21.20;49.00;;;;;;1496618;93;21913;-35
2020/12/22 01:02:15;;;;;;;1.12;0.70;;;21.20;49.00;;;;;;1509120;93;21310;-34
2020/12/22 01:04:43;;;;;;;0.75;0.75;;;21.20;49.00;;;;;;1489365;94;21157;-37
2020/12/22 01:07:11;;;;;;;1.77;0.82;;;21.20;49.00;;;;;;1492264;93;21247;-34
2020/12/22 01:09:38;;;;;;;1.05;0.75;;;21.20;48.70;;;;;;1507790;92;21308;-34
2020/12/22 01:12:07;;;;;;;1.90;0.85;;;21.20;49.00;;;;;;1472926;93;21212;-36
2020/12/22 01:14:34;;;;;;;1.57;0.82;;;21.20;48.90;;;;;;1506413;92;21226;-34
2020/12/22 01:17:02;;;;;;;2.35;1.30;;;21.20;48.90;;;;;;1500439;93;21224;-35
2020/12/22 01:19:30;;;;;;;0.70;0.70;;;21.10;48.90;;;;;;1486056;93;21308;-37
2020/12/22 01:21:58;;;;;;;1.12;1.00;;;21.10;48.90;;;;;;1498357;93;21274;-35
2020/12/22 01:24:26;;;;;;;0.80;0.80;;;21.10;48.90;;;;;;1477896;92;21248;-34
2020/12/22 01:26:53;;;;;;;0.60;0.60;;;21.20;48.90;;;;;;1502046;93;21222;-35
2020/12/22 01:29:21;;;;;;;1.10;0.80;;;21.10;48.90;;;;;;1498068;93;21281;-36
2020/12/22 01:31:49;;;;;;;2.75;0.70;;;21.10;49.00;;;;;;1498303;92;21592;-35
2020/12/22 01:34:17;;;;;;;1.22;0.70;;;21.10;48.90;;;;;;1477549;93;22358;-36
2020/12/22 01:36:45;;;;;;;0.70;0.70;;;21.10;48.90;;;;;;1472848;95;21241;-35
2020/12/22 01:39:13;;;;;;;0.90;0.80;;;21.10;48.90;;;;;;1484825;94;21309;-35
2020/12/22 01:41:40;;;;;;;0.80;0.70;;;21.10;48.90;;;;;;1481056;93;21233;-35
2020/12/22 01:44:14;;;;;;;0.82;0.70;;;21.10;48.90;;;;;;1468073;94;21346;-36
2020/12/22 01:46:43;;;;;;;1.00;0.90;;;21.10;48.90;;;;;;1487874;94;21313;-36
2020/12/22 01:49:25;;;;;;;0.98;0.70;;;21.10;48.90;;;;;;1475825;94;21221;-35
2020/12/22 01:51:57;;;;;;;0.72;0.68;;;21.10;48.90;;;;;;1479598;94;68335;-35
2020/12/22 01:54:26;;;;;;;0.70;0.70;;;21.10;48.90;;;;;;1485303;94;21237;-35
2020/12/22 01:56:55;;;;;;;0.60;0.60;;;21.10;48.90;;;;;;1483008;94;21215;-36
2020/12/22 01:59:23;;;;;;;1.77;1.00;;;21.10;48.90;;;;;;1485577;94;21245;-34
2020/12/22 02:01:53;;;;;;;1.42;0.90;;;21.10;48.90;;;;;;1475522;94;21344;-35
2020/12/22 02:04:21;;;;;;;1.12;0.60;;;21.10;48.90;;;;;;1494515;93;21304;-35
2020/12/22 02:06:49;;;;;;;0.70;0.70;;;21.10;48.90;;;;;;1497453;93;21790;-34
2020/12/22 02:09:17;;;;;;;0.50;0.50;;;21.10;48.90;;;;;;1482322;94;21309;-36
2020/12/22 02:11:44;;;;;;;0.60;0.60;;;21.00;48.90;;;;;;1492468;94;21242;-35
2020/12/22 02:14:12;;;;;;;2.25;0.72;;;21.10;48.90;;;;;;1492962;94;21311;-35
2020/12/22 02:16:40;;;;;;;0.75;0.57;;;21.00;48.80;;;;;;1503033;93;21184;-34
2020/12/22 02:19:08;;;;;;;0.90;0.65;;;21.00;48.80;;;;;;1488143;94;21198;-33
2020/12/22 02:21:36;;;;;;;1.12;0.80;;;21.00;48.80;;;;;;1474398;95;21207;-34
2020/12/22 02:24:04;;;;;;;2.17;0.78;;;21.10;48.90;;;;;;1474871;94;22204;-36
2020/12/22 02:26:31;;;;;;;0.70;0.70;;;21.10;48.90;;;;;;1487274;94;21212;-33
2020/12/22 02:28:59;;;;;;;1.37;0.50;;;21.00;48.80;;;;;;1488226;94;21160;-35
2020/12/22 02:31:27;;;;;;;0.65;0.65;;;21.00;48.90;;;;;;1490942;94;21637;-34
2020/12/22 02:33:55;;;;;;;1.02;0.80;;;21.10;48.90;;;;;;1490230;94;21964;-36
2020/12/22 02:36:23;;;;;;;0.70;0.70;;;21.00;48.80;;;;;;1474922;94;21288;-34
2020/12/22 02:38:51;;;;;;;0.50;0.50;;;21.00;48.80;;;;;;1491477;93;21620;-33
2020/12/22 02:41:19;;;;;;;0.88;0.65;;;21.00;48.80;;;;;;1474138;94;21252;-33
2020/12/22 02:43:47;;;;;;;0.70;0.60;;;21.00;48.80;;;;;;1472206;95;22304;-35
2020/12/22 02:46:14;;;;;;;0.85;0.72;;;21.00;48.90;;;;;;1487977;94;21354;-34
2020/12/22 02:48:42;;;;;;;1.47;0.70;;;21.00;48.90;;;;;;1488186;94;21251;-35
2020/12/22 02:51:11;;;;;;;0.60;0.60;;;21.10;48.90;;;;;;1487831;94;21214;-35
2020/12/22 02:53:38;;;;;;;2.77;0.55;;;21.10;48.80;;;;;;1487184;94;21249;-35
2020/12/22 02:56:06;;;;;;;1.37;0.70;;;21.10;48.80;;;;;;1487725;94;21187;-34
2020/12/22 02:58:34;;;;;;;1.27;0.75;;;21.10;48.80;;;;;;1481734;94;21368;-32
2020/12/22 03:01:01;;;;;;;0.62;0.50;;;21.10;48.70;;;;;;1471324;94;21551;-35
2020/12/22 03:03:29;;;;;;;0.90;0.53;;;21.10;48.70;;;;;;1481385;93;21755;-36
2020/12/22 03:05:57;;;;;;;0.70;0.62;;;21.10;48.70;;;;;;1496254;93;21214;-34
2020/12/22 03:08:25;;;;;;;1.15;0.50;;;21.10;48.70;;;;;;1500992;94;21665;-36
2020/12/22 03:10:52;;;;;;;0.60;0.60;;;21.10;48.70;;;;;;1484542;93;21702;-35
2020/12/22 03:13:20;;;;;;;0.40;0.40;;;21.20;48.80;;;;;;1485814;93;21275;-34
2020/12/22 03:15:48;;;;;;;0.50;0.50;;;21.20;48.70;;;;;;1474782;95;21682;-35
2020/12/22 03:18:18;;;;;;;0.60;0.60;;;21.20;48.70;;;;;;1503137;93;21209;-35
2020/12/22 03:20:45;;;;;;;0.50;0.50;;;21.20;48.80;;;;;;1483919;94;21303;-35
2020/12/22 03:23:13;;;;;;;1.45;0.68;;;21.20;48.70;;;;;;1488984;94;21219;-36
2020/12/22 03:25:41;;;;;;;0.60;0.60;;;21.20;48.70;;;;;;1494931;93;21258;-35
2020/12/22 03:28:08;;;;;;;1.15;0.60;;;21.20;48.70;;;;;;1490450;94;21172;-36
2020/12/22 03:30:36;;;;;;;0.65;0.65;;;21.20;48.70;;;;;;1488486;94;21279;-35
2020/12/22 03:33:04;;;;;;;0.62;0.60;;;21.20;48.70;;;;;;1485969;94;21429;-39
2020/12/22 03:35:31;;;;;;;0.60;0.57;;;21.20;48.70;;;;;;1491255;94;22000;-33
2020/12/22 03:37:59;;;;;;;0.50;0.50;;;21.20;48.70;;;;;;1496698;94;21186;-35
2020/12/22 03:40:27;;;;;;;0.70;0.60;;;21.20;48.70;;;;;;1475176;94;21238;-36
2020/12/22 03:42:55;;;;;;;0.57;0.57;;;21.20;48.70;;;;;;1486623;94;21289;-36
2020/12/22 03:45:23;;;;;;;1.30;0.57;;;21.30;48.80;;;;;;1488851;93;21803;-34
2020/12/22 03:47:51;;;;;;;0.50;0.50;;;21.20;48.70;;;;;;1481331;95;21242;-36
2020/12/22 03:50:19;;;;;;;0.40;0.40;;;21.30;48.70;;;;;;1489858;93;21223;-34
2020/12/22 03:52:46;;;;;;;0.50;0.50;;;21.20;48.70;;;;;;1496301;94;21203;-36
2020/12/22 03:55:14;;;;;;;0.78;0.47;;;21.30;48.70;;;;;;1457887;94;21360;-35
2020/12/22 03:57:42;;;;;;;0.95;0.60;;;21.30;48.70;;;;;;1485608;94;21616;-35
2020/12/22 04:00:13;;;;;;;0.40;0.40;;;21.30;48.70;;;;;;1472374;94;21616;-36
2020/12/22 04:02:41;;;;;;;0.57;0.53;;;21.20;48.60;;;;;;1481787;94;21202;-35
2020/12/22 04:05:09;;;;;;;1.25;0.68;;;21.30;48.70;;;;;;1505374;94;21813;-37
2020/12/22 04:07:37;;;;;;;0.65;0.40;;;21.30;48.70;;;;;;1477272;95;21283;-37
2020/12/22 04:10:06;;;;;;;0.40;0.40;;;21.30;48.70;;;;;;1487349;94;21253;-37
2020/12/22 04:12:34;;;;;;;0.95;0.50;;;21.30;48.70;;;;;;1482146;93;21226;-35
2020/12/22 04:15:03;;;;;;;0.62;0.60;;;21.30;48.70;;;;;;1487629;94;21198;-36
2020/12/22 04:17:30;;;;;;;0.88;0.70;;;21.30;48.70;;;;;;1488622;94;21296;-35
2020/12/22 04:19:58;;;;;;;1.02;0.50;;;21.30;48.80;;;;;;1473143;94;21184;-35
2020/12/22 04:22:26;;;;;;;0.50;0.42;;;21.30;48.70;;;;;;1489006;93;21296;-36
2020/12/22 04:24:54;;;;;;;0.65;0.50;;;21.30;48.70;;;;;;1492902;94;21691;-35
2020/12/22 04:27:21;;;;;;;0.80;0.47;;;21.30;48.70;;;;;;1470126;94;21848;-34
2020/12/22 04:29:49;;;;;;;2.35;0.80;;;21.30;48.70;;;;;;1485978;94;21277;-33
2020/12/22 04:32:16;;;;;;;1.60;0.60;;;21.30;48.70;;;;;;1489517;93;21420;-37
2020/12/22 04:34:44;;;;;;;0.82;0.50;;;21.30;48.70;;;;;;1456984;95;21233;-37
2020/12/22 04:37:12;;;;;;;1.42;0.53;;;21.30;48.70;;;;;;1489732;93;21309;-38
2020/12/22 04:39:40;;;;;;;0.65;0.57;;;21.30;48.70;;;;;;1476518;94;21214;-34
2020/12/22 04:42:08;;;;;;;0.72;0.47;;;21.30;48.70;;;;;;1469939;93;21177;-36
2020/12/22 04:44:36;;;;;;;1.92;0.47;;;21.30;48.70;;;;;;1484598;94;21213;-34
2020/12/22 04:47:06;;;;;;;0.68;0.55;;;21.30;48.80;;;;;;1480967;94;21385;-35
2020/12/22 04:49:36;;;;;;;0.50;0.50;;;21.30;48.80;;;;;;1489878;93;21281;-35
2020/12/22 04:52:04;;;;;;;1.05;0.50;;;21.30;48.80;;;;;;1489006;94;21226;-35
2020/12/22 04:54:33;;;;;;;0.88;0.60;;;21.40;48.80;;;;;;1479239;94;21185;-36
2020/12/22 04:57:04;;;;;;;0.70;0.50;;;21.30;48.70;;;;;;1491311;93;21206;-36
2020/12/22 04:59:37;;;;;;;0.33;0.33;;;21.30;48.70;;;;;;1464904;94;21237;-35
2020/12/22 05:02:03;;;;;;;1.00;0.40;;;21.30;48.70;;;;;;1487431;94;21750;-35
2020/12/22 05:04:38;;;;;;;1.07;0.42;;;21.30;48.80;;;;;;1497089;94;21250;-34
2020/12/22 05:07:09;;;;;;;0.42;0.42;;;21.40;48.80;;;;;;1487107;94;21337;-34
2020/12/22 05:09:36;;;;;;;1.00;0.40;;;21.30;48.80;;;;;;1501005;94;21783;-35
2020/12/22 05:12:04;;;;;;;0.40;0.40;;;21.30;48.80;;;;;;1487875;94;21223;-35
2020/12/22 05:14:32;;;;;;;0.40;0.40;;;21.30;48.90;;;;;;1455198;96;21450;-32
2020/12/22 05:16:59;;;;;;;0.93;0.60;;;21.40;48.80;;;;;;1489408;94;21241;-35
2020/12/22 05:19:36;;;;;;;0.68;0.30;;;21.30;48.90;;;;;;1487194;94;21685;-34
2020/12/22 05:22:06;;;;;;;0.40;0.40;;;21.40;48.80;;;;;;1470081;94;21203;-33
2020/12/22 05:24:36;;;;;;;0.30;0.30;;;21.40;48.90;;;;;;1487930;94;21218;-34
2020/12/22 05:27:04;;;;;;;0.40;0.40;;;21.40;48.90;;;;;;1488199;93;21336;-33
2020/12/22 05:29:33;;;;;;;0.90;0.75;;;21.40;48.80;;;;;;1488846;94;21242;-35
2020/12/22 05:32:01;;;;;;;0.35;0.30;;;21.40;48.80;;;;;;1479575;93;21272;-36
2020/12/22 05:34:29;;;;;;;0.65;0.40;;;21.40;48.90;;;;;;1470942;94;21239;-38
2020/12/22 05:37:00;;;;;;;0.40;0.40;;;21.40;48.90;;;;;;1489262;93;21586;-35
2020/12/22 05:39:28;;;;;;;0.40;0.40;;;21.40;48.90;;;;;;1470073;94;21663;-35
2020/12/22 05:41:55;;;;;;;0.57;0.40;;;21.40;48.90;;;;;;1474480;94;21233;-34
2020/12/22 05:44:26;;;;;;;0.40;0.40;;;21.40;48.90;;;;;;1492100;93;21362;-35
2020/12/22 05:46:54;;;;;;;0.30;0.30;;;21.40;48.90;;;;;;1488840;94;21374;-36
2020/12/22 05:49:22;;;;;;;1.60;0.50;;;21.40;48.90;;;;;;1491221;93;21210;-36
2020/12/22 05:51:52;;;;;;;0.47;0.47;;;21.40;48.90;;;;;;1490647;93;21702;-35
2020/12/22 05:54:20;;;;;;;0.50;0.50;;;21.40;48.90;;;;;;1491878;94;21221;-34
2020/12/22 05:56:48;;;;;;;0.50;0.50;;;21.40;48.80;;;;;;1491375;94;21521;-37
2020/12/22 05:59:20;;;;;;;0.65;0.50;;;21.40;48.80;;;;;;1470948;94;21282;-35
2020/12/22 06:01:48;;;;;;;0.33;0.33;;;21.40;48.90;;;;;;1468415;95;21215;-37
2020/12/22 06:04:18;;;;;;;0.30;0.30;;;21.40;48.90;;;;;;1496276;94;21364;-35
2020/12/22 06:06:46;;;;;;;0.30;0.30;;;21.40;48.90;;;;;;1477089;94;21243;-35
2020/12/22 06:09:15;;;;;;;0.50;0.50;;;21.40;48.90;;;;;;1491117;94;21235;-34
2020/12/22 06:11:43;;;;;;;1.32;0.60;;;21.40;48.90;;;;;;1502818;94;21409;-35
2020/12/22 06:14:12;;;;;;;0.30;0.30;;;21.40;48.90;;;;;;1460163;94;21198;-36
2020/12/22 06:16:40;;;;;;;0.40;0.40;;;21.40;48.90;;;;;;1502479;94;21734;-35
2020/12/22 06:19:08;;;;;;;0.33;0.33;;;21.40;48.90;;;;;;1488970;93;21182;-33
2020/12/22 06:21:37;;;;;;;0.40;0.40;;;21.40;48.90;;;;;;1482940;94;21187;-36
2020/12/22 06:24:05;;;;;;;0.35;0.33;;;21.40;48.90;;;;;;1498347;94;21241;-32
2020/12/22 06:26:32;;;;;;;0.40;0.30;;;21.40;48.90;;;;;;1479028;94;21241;-36
2020/12/22 06:29:00;;;;;;;0.78;0.42;;;21.40;48.90;;;;;;1499657;93;21210;-35
2020/12/22 06:31:31;;;;;;;0.50;0.37;;;21.40;48.90;;;;;;1498196;93;21403;-36
2020/12/22 06:33:58;;;;;;;2.08;0.57;;;21.40;48.90;;;;;;1492053;93;21238;-35
2020/12/22 06:36:26;;;;;;;1.00;0.40;;;21.40;48.90;;;;;;1521644;93;21708;-36
2020/12/22 06:38:58;;;;;;;3.70;0.70;;;21.40;48.90;;;;;;1502243;93;21308;-39
2020/12/22 06:41:39;;;;;;;1.45;0.50;;;21.40;48.90;;;;;;1518211;92;21297;-35
2020/12/22 06:44:18;;;;;;;0.62;0.60;;;21.40;48.90;;;;;;1509847;92;21206;-34
2020/12/22 06:46:53;;;;;;;2.85;0.40;;;21.40;49.00;;;;;;1525724;91;67724;-35
2020/12/22 06:49:24;;;;;;;1.70;0.90;;;21.40;49.00;;;;;;1542739;91;21225;-37
2020/12/22 06:51:51;;;;;;;1.00;0.40;;;21.40;49.00;;;;;;1496333;92;21252;-36
2020/12/22 06:54:28;;;;;;;0.90;0.40;;;21.40;49.00;;;;;;1524084;91;21190;-35
2020/12/22 06:56:56;;;;;;;1.22;0.82;;;21.40;49.00;;;;;;1529226;91;21190;-35
2020/12/22 06:59:44;;;;;;;0.60;0.50;;;21.40;48.90;;;;;;1547014;91;21221;-34
2020/12/22 07:02:35;;;;;;;0.42;0.42;;;21.40;48.90;;;;;;1530431;91;67215;-35
2020/12/22 07:05:04;;;;;;;0.40;0.40;;;21.40;49.00;;;;;;1535194;90;67613;-39
2020/12/22 07:07:58;;;;;;;0.60;0.40;;;21.40;49.00;;;;;;1522568;91;22399;-35
2020/12/22 07:10:29;;;;;;;0.40;0.40;;;21.40;49.00;;;;;;1531865;90;67802;-40
2020/12/22 07:12:58;;;;;;;1.30;0.50;;;21.40;49.00;;;;;;1517486;92;21399;-35
2020/12/22 07:15:37;;;;;;;2.37;0.40;;;21.40;49.00;;;;;;1529408;91;21784;-38
2020/12/22 07:18:06;;;;;;;0.78;0.40;;;21.40;49.00;;;;;;1504398;92;21700;-35
2020/12/22 07:20:35;;;;;;;0.55;0.42;;;21.40;49.00;;;;;;1523594;91;21297;-36
2020/12/22 07:23:04;;;;;;;0.62;0.40;;;21.40;49.60;;;;;;1524597;92;21708;-37
2020/12/22 07:25:32;;;;;;;0.75;0.50;;;21.40;49.00;;;;;;1532707;91;21212;-36
2020/12/22 07:28:03;;;;;;;0.85;0.33;;;21.40;49.00;;;;;;1532214;91;21352;-35
2020/12/22 07:30:30;;;;;;;0.88;0.50;;;21.40;49.10;;;;;;1513585;92;22433;-38
2020/12/22 07:33:00;;;;;;;0.45;0.40;;;21.40;49.00;;;;;;1532641;92;21211;-34
2020/12/22 07:35:29;;;;;;;1.12;0.50;;;21.40;49.00;;;;;;1537007;91;21222;-36
2020/12/22 07:38:11;;;;;;;0.40;0.40;;;21.40;49.00;;;;;;1522742;91;21210;-35
2020/12/22 07:40:40;;;;;;;0.68;0.40;;;21.40;49.00;;;;;;1498469;93;69967;-34
2020/12/22 07:43:10;;;;;;;0.55;0.40;;;21.40;49.00;;;;;;1484740;94;21413;-36
2020/12/22 07:45:39;;;;;;;0.82;0.53;;;21.40;49.00;;;;;;1464558;96;21233;-34
2020/12/22 07:48:07;;;;;;;0.42;0.42;;;21.40;49.00;;;;;;1475962;95;21222;-36
2020/12/22 07:50:36;;;;;;;0.40;0.40;;;21.40;49.00;;;;;;1456072;96;21776;-36
2020/12/22 07:53:04;;;;;;;0.82;0.60;;;21.40;49.00;;;;;;1470618;95;21574;-35
2020/12/22 07:55:41;;;;;;;0.30;0.30;;;21.40;49.00;;;;;;1466826;95;21222;-34
2020/12/22 07:58:09;;;;;;;0.40;0.40;;;21.40;49.00;;;;;;1445010;95;21226;-36
2020/12/22 08:00:37;;;;;;;0.40;0.40;;;21.40;49.10;;;;;;1459563;94;21245;-35
2020/12/22 08:03:19;;;;;;;0.45;0.45;;;21.40;49.10;;;;;;1461250;96;21332;-35
2020/12/22 08:06:00;;;;;;;0.57;0.30;;;21.40;49.10;;;;;;1451544;96;21202;-36
2020/12/22 08:08:28;;;;;;;0.40;0.40;;;21.40;49.10;;;;;;1447942;95;67709;-35
2020/12/22 08:10:55;;;;;;;1.02;0.45;;;21.40;49.60;;;;;;1459618;95;21652;-35
2020/12/22 08:13:29;;;;;;;0.30;0.30;;;21.40;49.10;;;;;;1477722;95;22004;-35
2020/12/22 08:15:59;;;;;;;0.42;0.42;;;21.40;49.10;;;;;;1475382;95;21403;-35
2020/12/22 08:18:28;;;;;;;1.10;0.57;;;21.40;49.10;;;;;;1475089;95;21248;-33
2020/12/22 08:20:58;;;;;;;0.82;0.35;;;21.40;49.10;;;;;;1477632;95;21228;-34
2020/12/22 08:23:26;;;;;;;1.15;0.50;;;21.40;49.10;;;;;;1475604;95;21232;-35
2020/12/22 08:25:55;;;;;;;0.40;0.40;;;21.40;49.10;;;;;;1474316;95;21212;-34
2020/12/22 08:28:25;;;;;;;0.42;0.42;;;21.40;49.10;;;;;;1475005;95;21415;-41
2020/12/22 08:30:55;;;;;;;0.62;0.50;;;21.50;49.10;;;;;;1472794;95;21234;-36
2020/12/22 08:33:23;;;;;;;0.42;0.42;;;21.40;49.10;;;;;;1472344;95;22487;-35
2020/12/22 08:35:52;;;;;;;0.30;0.30;;;21.40;49.10;;;;;;1475894;95;21246;-35
2020/12/22 08:38:27;;;;;;;0.40;0.40;;;21.40;48.60;;;;;;1485486;95;21229;-35
2020/12/22 08:40:56;;;;;;;0.78;0.55;;;21.40;49.10;;;;;;1488445;95;21234;-36
2020/12/22 08:43:25;;;;;;;0.47;0.47;;;21.40;49.10;;;;;;1474128;95;21238;-37
2020/12/22 08:45:53;;;;;;;0.37;0.30;;;21.40;49.10;;;;;;1486848;95;21961;-37
2020/12/22 08:48:21;;;;;;;1.05;0.50;;;21.40;49.10;;;;;;1472411;94;21215;-36
2020/12/22 08:50:53;;;;;;;0.65;0.40;;;21.40;49.10;;;;;;1483730;94;21548;-35
2020/12/22 08:53:20;;;;;;;0.40;0.40;;;21.40;49.10;;;;;;1487336;94;21222;-36
2020/12/22 08:55:48;;;;;;;0.35;0.35;;;21.40;49.10;;;;;;1476373;95;21314;-38
2020/12/22 08:58:17;;;;;;;0.42;0.40;;;21.40;49.10;;;;;;1484669;95;22411;-36
2020/12/22 09:00:45;;;;;;;1.40;0.40;;;21.40;49.10;;;;;;1471566;95;21271;-35
2020/12/22 09:03:12;;;;;;;0.53;0.30;;;21.40;49.10;;;;;;1482418;94;21246;-37
2020/12/22 09:05:43;;;;;;;0.37;0.37;;;21.40;49.10;;;;;;1486061;94;21307;-33
2020/12/22 09:08:11;;;;;;;0.80;0.40;;;21.40;49.10;;;;;;1481281;94;21295;-38
2020/12/22 09:10:49;;;;;;;0.37;0.30;;;21.40;49.10;;;;;;1486780;95;21302;-37
2020/12/22 09:13:17;;;;;;;0.33;0.30;;;21.40;49.10;;;;;;1485850;95;21337;-34
2020/12/22 09:15:55;;;;;;;1.02;0.47;;;21.40;48.80;;;;;;1481135;94;21253;-36
2020/12/22 09:18:23;;;;;;;0.47;0.40;;;21.40;49.20;;;;;;1480895;94;21187;-37
2020/12/22 09:21:07;;;;;;;1.22;0.40;;;21.50;49.30;;;;;;1466045;95;21332;-35
2020/12/22 09:23:45;;;;;;;0.37;0.37;;;21.60;49.30;;;;;;1475579;92;67273;-37
2020/12/22 09:26:12;;;;;;;0.50;0.40;;;21.70;49.20;;;;;;1503024;93;21264;-36
2020/12/22 09:28:40;;;;;;;0.50;0.33;;;21.70;49.20;;;;;;1472630;93;21240;-35
2020/12/22 09:31:08;;;;;;;4.05;0.40;;;21.80;49.10;;;;;;1504433;93;22251;-36
2020/12/22 09:33:35;;;;;;;1.85;0.40;;;21.90;49.00;;;;;;1495620;94;21276;-35
2020/12/22 09:36:05;;;;;;;0.42;0.30;;;21.90;49.00;;;;;;1504943;93;21247;-37
2020/12/22 09:38:32;;;;;;;0.47;0.30;;;21.90;48.80;;;;;;1500774;93;21310;-37
2020/12/22 09:41:00;;;;;;;1.90;0.70;;;22.00;48.70;;;;;;1487204;93;21367;-35
2020/12/22 09:43:28;;;;;;;0.62;0.40;;;22.00;48.70;;;;;;1503592;93;21165;-36
2020/12/22 09:45:56;;;;;;;0.70;0.50;;;22.00;48.60;;;;;;1498397;93;21220;-35
2020/12/22 09:48:23;;;;;;;2.15;0.50;;;22.10;48.60;;;;;;1468622;93;21220;-37
2020/12/22 09:50:51;;;;;;;1.05;0.40;;;22.10;48.60;;;;;;1501414;93;21790;-34
2020/12/22 09:53:19;;;;;;;0.42;0.42;;;22.20;48.50;;;;;;1484536;93;21682;-36
2020/12/22 09:55:47;;;;;;;0.42;0.35;;;22.20;48.50;;;;;;1487240;93;21719;-36
2020/12/22 09:58:14;;;;;;;0.85;0.30;;;22.20;48.40;;;;;;1501774;93;21200;-35
2020/12/22 10:00:44;;;;;;;0.70;0.50;;;22.20;48.30;;;;;;1483317;94;21300;-35
2020/12/22 10:03:12;;;;;;;0.40;0.30;;;22.20;48.30;;;;;;1497246;94;21312;-41
2020/12/22 10:05:39;;;;;;;0.88;0.47;;;22.30;48.30;;;;;;1495083;94;21265;-37
2020/12/22 10:08:07;;;;;;;1.60;0.55;;;22.30;48.30;;;;;;1484272;94;22686;-38
2020/12/22 10:10:35;;;;;;;0.68;0.50;;;22.30;48.20;;;;;;1493201;94;21241;-37
2020/12/22 10:13:02;;;;;;;0.98;0.50;;;22.30;48.10;;;;;;1492570;94;21368;-35
2020/12/22 10:15:30;;;;;;;2.05;0.50;;;22.40;48.10;;;;;;1495605;94;21248;-37
2020/12/22 10:17:58;;;;;;;0.35;0.33;;;22.40;48.40;;;;;;1494965;94;21252;-35
2020/12/22 10:20:26;;;;;;;0.70;0.47;;;22.40;48.00;;;;;;1492987;94;21756;-36
2020/12/22 10:22:53;;;;;;;0.72;0.40;;;22.50;48.00;;;;;;1494310;94;21328;-37
2020/12/22 10:25:21;;;;;;;1.67;0.40;;;22.50;48.00;;;;;;1494291;94;21224;-36
2020/12/22 10:27:48;;;;;;;2.47;0.40;;;22.50;47.90;;;;;;1463419;94;22320;-35
2020/12/22 10:30:16;;;;;;;0.33;0.33;;;22.50;47.90;;;;;;1493156;94;21259;-36
2020/12/22 10:32:44;;;;;;;0.70;0.50;;;22.50;48.00;;;;;;1493097;94;21272;-36
2020/12/22 10:35:11;;;;;;;0.70;0.40;;;22.50;48.10;;;;;;1480967;95;21252;-36
2020/12/22 10:37:39;;;;;;;1.42;0.50;;;22.50;48.70;;;;;;1492839;94;21253;-37
2020/12/22 10:40:07;;;;;;;0.80;0.70;;;22.50;48.20;;;;;;1462417;94;21189;-35
2020/12/22 10:42:35;;;;;;;1.25;0.70;;;22.50;48.30;;;;;;1493943;94;22120;-36
2020/12/22 10:45:02;;;;;;;2.40;0.90;;;22.50;48.60;;;;;;1495030;94;21219;-33
2020/12/22 10:47:30;;;;;;;4.53;1.02;;;22.50;49.50;;;;;;1494824;94;21827;-36
2020/12/22 10:49:58;;;;;;;3.00;0.95;;;22.60;49.50;;;;;;1493705;94;21245;-36
2020/12/22 10:52:25;;;;;;;2.15;0.98;;;22.60;49.40;;;;;;1477385;94;21319;-36
2020/12/22 10:54:54;;;;;;;4.47;1.07;;;22.60;49.20;;;;;;1493757;94;21237;-35
2020/12/22 10:57:22;;;;;;;6.25;1.25;;;22.60;49.80;;;;;;1494441;94;21272;-36
2020/12/22 10:59:49;;;;;;;3.20;1.10;;;22.60;49.30;;;;;;1478439;94;21198;-36
2020/12/22 11:02:17;;;;;;;5.28;1.02;;;22.60;49.20;;;;;;1496035;94;21319;-36
2020/12/22 11:04:45;;;;;;;3.17;1.00;;;22.60;49.50;;;;;;1494021;94;21249;-36
2020/12/22 11:07:22;;;;;;;4.03;0.78;;;22.70;49.30;;;;;;1461841;95;21225;-36
2020/12/22 11:09:45;;;;;;;7.62;0.75;;;22.70;49.20;;;;;;1494825;94;21261;-36
2020/12/22 11:12:13;;;;;;;3.52;1.07;;;22.70;49.20;;;;;;1473705;94;21233;-36
2020/12/22 11:14:40;;;;;;;2.10;0.93;;;22.70;49.70;;;;;;1460883;95;21327;-37
2020/12/22 11:17:08;;;;;;;2.17;0.95;;;22.70;49.10;;;;;;1492337;94;21322;-37
2020/12/22 11:19:36;;;;;;;2.22;1.07;;;22.70;49.00;;;;;;1476854;95;21814;-35
2020/12/22 11:22:04;;;;;;;1.35;0.65;;;22.70;49.50;;;;;;1491993;94;21311;-36
2020/12/22 11:24:31;;;;;;;3.50;0.98;;;22.80;49.00;;;;;;1493133;94;21754;-37
2020/12/22 11:26:59;;;;;;;2.10;0.85;;;22.80;49.00;;;;;;1463793;94;21261;-36
2020/12/22 11:29:26;;;;;;;3.27;0.93;;;22.80;48.90;;;;;;1480608;94;21384;-35
2020/12/22 11:31:54;;;;;;;4.05;1.12;;;22.80;48.90;;;;;;1494559;94;21696;-40
2020/12/22 11:34:22;;;;;;;4.95;0.78;;;22.80;48.90;;;;;;1496751;94;21300;-34
2020/12/22 11:36:52;;;;;;;3.10;1.00;;;22.80;48.90;;;;;;1494291;94;22000;-37
2020/12/22 11:39:20;;;;;;;3.80;0.70;;;22.90;48.70;;;;;;1480834;94;21721;-36
2020/12/22 11:41:49;;;;;;;2.22;0.80;;;22.80;48.60;;;;;;1482564;95;21337;-37
2020/12/22 11:44:16;;;;;;;1.90;0.82;;;22.90;48.60;;;;;;1475343;95;21271;-36
2020/12/22 11:46:46;;;;;;;2.35;0.93;;;22.90;48.60;;;;;;1448134;96;21274;-38
2020/12/22 11:49:14;;;;;;;2.90;1.35;;;22.80;48.60;;;;;;1481200;95;21245;-36
2020/12/22 11:51:42;;;;;;;3.40;0.60;;;22.90;48.50;;;;;;1465066;95;21326;-36
2020/12/22 11:54:10;;;;;;;3.98;0.90;;;22.80;48.50;;;;;;1444547;95;21191;-38
2020/12/22 11:56:37;;;;;;;2.62;0.93;;;22.90;48.70;;;;;;1476095;94;21314;-35
2020/12/22 11:59:05;;;;;;;4.42;1.10;;;22.90;48.50;;;;;;1460903;95;21233;-35
2020/12/22 12:01:33;;;;;;;2.77;0.90;;;22.80;48.40;;;;;;1476478;95;21237;-32
2020/12/22 12:04:00;;;;;;;1.02;0.70;;;22.80;48.50;;;;;;1476629;93;21296;-34
2020/12/22 12:06:28;;;;;;;1.32;1.02;;;22.80;48.50;;;;;;1449318;95;21306;-36
2020/12/22 12:08:56;;;;;;;6.22;1.20;;;22.80;48.50;;;;;;1478811;93;21190;-36
2020/12/22 12:11:24;;;;;;;3.90;1.25;;;22.80;48.90;;;;;;1476429;94;21699;-34
2020/12/22 12:13:51;;;;;;;3.72;1.10;;;22.80;49.00;;;;;;1475582;94;21225;-35
2020/12/22 12:16:19;;;;;;;5.35;1.30;;;22.70;49.30;;;;;;1476839;95;21264;-35
2020/12/22 12:18:47;;;;;;;2.95;1.27;;;22.80;49.50;;;;;;1464838;95;21237;-37
2020/12/22 12:21:18;;;;;;;4.00;0.98;;;22.80;49.90;;;;;;1480220;94;22389;-34
2020/12/22 12:23:46;;;;;;;2.33;1.05;;;22.70;49.60;;;;;;1477338;94;21273;-35
2020/12/22 12:26:14;;;;;;;4.35;1.25;;;22.80;49.80;;;;;;1459738;95;21198;-36
2020/12/22 12:28:42;;;;;;;6.28;1.50;;;22.80;50.10;;;;;;1475344;94;21621;-36
2020/12/22 12:31:14;;;;;;;2.75;0.88;;;22.80;50.00;;;;;;1460755;94;21229;-36
2020/12/22 12:33:43;;;;;;;2.42;1.20;;;22.80;49.90;;;;;;1459254;95;21205;-36
2020/12/22 12:36:14;;;;;;;2.22;1.35;;;22.80;50.00;;;;;;1478092;94;21235;-37
2020/12/22 12:38:42;;;;;;;1.67;0.90;;;22.90;49.90;;;;;;1460837;95;21233;-35
2020/12/22 12:41:14;;;;;;;1.40;0.93;;;22.90;50.30;;;;;;1478334;95;21719;-37
2020/12/22 12:43:42;;;;;;;2.60;1.00;;;22.90;50.00;;;;;;1476891;95;21283;-39
2020/12/22 12:46:10;;;;;;;3.83;0.95;;;22.90;50.10;;;;;;1462160;94;21256;-37
2020/12/22 12:48:39;;;;;;;6.55;1.67;;;22.90;50.00;;;;;;1477404;95;21426;-35
2020/12/22 12:51:07;;;;;;;3.87;1.00;;;22.90;50.10;;;;;;1461613;94;21689;-36
2020/12/22 12:53:37;;;;;;;3.35;1.10;;;22.90;50.00;;;;;;1478132;93;21249;-35
2020/12/22 12:56:06;;;;;;;4.40;1.17;;;22.90;50.10;;;;;;1458655;95;22449;-36